sensor_id;sensor_type;location;lat;lon;timestamp;temperature;humidity
78490;DHT22;67776;52.012;4.736;2023-09-19T00:00:21;14.18;90.80
78490;DHT22;67776;52.012;4.736;2023-09-19T00:02:57;14.18;91.02
78490;DHT22;67776;52.012;4.736;2023-09-19T00:05:25;14.22;90.37
78490;DHT22;67776;52.012;4.736;2023-09-19T00:07:53;14.26;89.79
78490;DHT22;67776;52.012;4.736;2023-09-19T00:10:19;14.28;90.17
78490;DHT22;67776;52.012;4.736;2023-09-19T00:12:45;14.29;89.47
78490;DHT22;67776;52.012;4.736;2023-09-19T00:15:10;14.33;89.97
78490;DHT22;67776;52.012;4.736;2023-09-19T00:17:36;14.39;90.02
78490;DHT22;67776;52.012;4.736;2023-09-19T00:20:03;14.48;91.44
78490;DHT22;67776;52.012;4.736;2023-09-19T00:22:32;14.41;88.45
78490;DHT22;67776;52.012;4.736;2023-09-19T00:24:58;14.46;87.49
78490;DHT22;67776;52.012;4.736;2023-09-19T00:27:23;14.56;85.61
78490;DHT22;67776;52.012;4.736;2023-09-19T00:29:48;14.58;86.16
78490;DHT22;67776;52.012;4.736;2023-09-19T00:32:14;14.56;84.72
78490;DHT22;67776;52.012;4.736;2023-09-19T00:34:39;14.55;86.21
78490;DHT22;67776;52.012;4.736;2023-09-19T00:37:04;14.56;85.02
78490;DHT22;67776;52.012;4.736;2023-09-19T00:39:30;14.53;86.00
78490;DHT22;67776;52.012;4.736;2023-09-19T00:41:57;14.56;83.54
78490;DHT22;67776;52.012;4.736;2023-09-19T00:44:22;14.55;84.70
78490;DHT22;67776;52.012;4.736;2023-09-19T00:46:48;14.58;85.67
78490;DHT22;67776;52.012;4.736;2023-09-19T00:49:15;14.53;86.52
78490;DHT22;67776;52.012;4.736;2023-09-19T00:51:40;14.52;85.58
78490;DHT22;67776;52.012;4.736;2023-09-19T00:54:11;14.46;83.85
78490;DHT22;67776;52.012;4.736;2023-09-19T00:56:38;14.45;85.51
78490;DHT22;67776;52.012;4.736;2023-09-19T00:59:05;14.39;85.98
78490;DHT22;67776;52.012;4.736;2023-09-19T01:01:31;14.35;84.60
78490;DHT22;67776;52.012;4.736;2023-09-19T01:03:58;14.35;86.19
78490;DHT22;67776;52.012;4.736;2023-09-19T01:06:23;14.31;84.92
78490;DHT22;67776;52.012;4.736;2023-09-19T01:08:49;14.22;86.07
78490;DHT22;67776;52.012;4.736;2023-09-19T01:11:28;14.33;84.74
78490;DHT22;67776;52.012;4.736;2023-09-19T01:16:59;14.32;82.90
78490;DHT22;67776;52.012;4.736;2023-09-19T01:22:13;14.55;83.24
78490;DHT22;67776;52.012;4.736;2023-09-19T01:30:15;14.86;83.08
78490;DHT22;67776;52.012;4.736;2023-09-19T01:32:42;14.84;80.52
78490;DHT22;67776;52.012;4.736;2023-09-19T01:35:08;14.90;81.92
78490;DHT22;67776;52.012;4.736;2023-09-19T01:37:37;15.00;80.47
78490;DHT22;67776;52.012;4.736;2023-09-19T01:40:06;15.08;82.40
78490;DHT22;67776;52.012;4.736;2023-09-19T01:42:58;15.18;81.13
78490;DHT22;67776;52.012;4.736;2023-09-19T01:51:09;15.28;81.18
78490;DHT22;67776;52.012;4.736;2023-09-19T01:54:01;15.20;81.37
78490;DHT22;67776;52.012;4.736;2023-09-19T01:56:34;15.01;83.35
78490;DHT22;67776;52.012;4.736;2023-09-19T01:59:09;14.93;84.97
78490;DHT22;67776;52.012;4.736;2023-09-19T02:01:37;14.77;83.38
78490;DHT22;67776;52.012;4.736;2023-09-19T02:04:03;14.76;84.28
78490;DHT22;67776;52.012;4.736;2023-09-19T02:06:29;14.77;82.68
78490;DHT22;67776;52.012;4.736;2023-09-19T02:08:54;14.77;82.65
78490;DHT22;67776;52.012;4.736;2023-09-19T02:11:20;14.79;84.02
78490;DHT22;67776;52.012;4.736;2023-09-19T02:13:45;14.77;81.97
78490;DHT22;67776;52.012;4.736;2023-09-19T02:16:11;14.88;81.57
78490;DHT22;67776;52.012;4.736;2023-09-19T02:18:37;14.81;82.56
78490;DHT22;67776;52.012;4.736;2023-09-19T02:21:04;14.79;82.60
78490;DHT22;67776;52.012;4.736;2023-09-19T02:23:32;14.86;81.43
78490;DHT22;67776;52.012;4.736;2023-09-19T02:25:58;14.81;83.05
78490;DHT22;67776;52.012;4.736;2023-09-19T02:28:26;14.80;81.85
78490;DHT22;67776;52.012;4.736;2023-09-19T02:30:55;14.84;80.41
78490;DHT22;67776;52.012;4.736;2023-09-19T02:33:21;14.79;81.76
78490;DHT22;67776;52.012;4.736;2023-09-19T02:35:46;14.70;83.35
78490;DHT22;67776;52.012;4.736;2023-09-19T02:38:12;14.65;81.91
78490;DHT22;67776;52.012;4.736;2023-09-19T02:40:37;14.69;81.66
78490;DHT22;67776;52.012;4.736;2023-09-19T02:43:03;14.62;81.62
78490;DHT22;67776;52.012;4.736;2023-09-19T02:45:30;14.58;82.40
78490;DHT22;67776;52.012;4.736;2023-09-19T02:47:55;14.62;81.37
78490;DHT22;67776;52.012;4.736;2023-09-19T02:50:20;14.66;81.82
78490;DHT22;67776;52.012;4.736;2023-09-19T02:52:47;14.60;81.56
78490;DHT22;67776;52.012;4.736;2023-09-19T02:55:17;14.46;84.47
78490;DHT22;67776;52.012;4.736;2023-09-19T02:57:48;14.41;83.30
78490;DHT22;67776;52.012;4.736;2023-09-19T03:00:15;14.29;84.25
78490;DHT22;67776;52.012;4.736;2023-09-19T03:02:40;14.28;83.50
78490;DHT22;67776;52.012;4.736;2023-09-19T03:05:07;14.26;84.78
78490;DHT22;67776;52.012;4.736;2023-09-19T03:07:32;14.21;85.89
78490;DHT22;67776;52.012;4.736;2023-09-19T03:09:58;14.20;85.19
78490;DHT22;67776;52.012;4.736;2023-09-19T03:12:23;14.24;84.94
78490;DHT22;67776;52.012;4.736;2023-09-19T03:14:48;14.26;85.11
78490;DHT22;67776;52.012;4.736;2023-09-19T03:17:15;14.24;86.21
78490;DHT22;67776;52.012;4.736;2023-09-19T03:19:41;14.26;86.30
78490;DHT22;67776;52.012;4.736;2023-09-19T03:22:06;14.29;85.35
78490;DHT22;67776;52.012;4.736;2023-09-19T03:24:32;14.33;85.60
78490;DHT22;67776;52.012;4.736;2023-09-19T03:26:58;14.38;86.15
78490;DHT22;67776;52.012;4.736;2023-09-19T03:29:23;14.39;86.48
78490;DHT22;67776;52.012;4.736;2023-09-19T03:31:48;14.38;85.11
78490;DHT22;67776;52.012;4.736;2023-09-19T03:34:14;14.38;84.89
78490;DHT22;67776;52.012;4.736;2023-09-19T03:36:39;14.35;84.62
78490;DHT22;67776;52.012;4.736;2023-09-19T03:39:06;14.38;84.49
78490;DHT22;67776;52.012;4.736;2023-09-19T03:41:32;14.36;85.04
78490;DHT22;67776;52.012;4.736;2023-09-19T03:43:58;14.33;85.11
78490;DHT22;67776;52.012;4.736;2023-09-19T03:46:23;14.33;84.41
78490;DHT22;67776;52.012;4.736;2023-09-19T03:48:50;14.39;83.88
78490;DHT22;67776;52.012;4.736;2023-09-19T03:51:15;14.35;83.84
78490;DHT22;67776;52.012;4.736;2023-09-19T03:53:40;14.29;85.42
78490;DHT22;67776;52.012;4.736;2023-09-19T03:56:06;14.25;84.57
78490;DHT22;67776;52.012;4.736;2023-09-19T03:58:31;14.26;83.77
78490;DHT22;67776;52.012;4.736;2023-09-19T04:00:57;14.31;84.18
78490;DHT22;67776;52.012;4.736;2023-09-19T04:03:23;14.33;83.48
78490;DHT22;67776;52.012;4.736;2023-09-19T04:05:50;14.33;83.78
78490;DHT22;67776;52.012;4.736;2023-09-19T04:08:15;14.33;83.76
78490;DHT22;67776;52.012;4.736;2023-09-19T04:10:43;14.35;83.68
78490;DHT22;67776;52.012;4.736;2023-09-19T04:13:10;14.43;83.75
78490;DHT22;67776;52.012;4.736;2023-09-19T04:15:36;14.41;84.29
78490;DHT22;67776;52.012;4.736;2023-09-19T04:18:03;14.33;85.44
78490;DHT22;67776;52.012;4.736;2023-09-19T04:20:29;14.31;84.99
78490;DHT22;67776;52.012;4.736;2023-09-19T04:22:54;14.29;85.13
78490;DHT22;67776;52.012;4.736;2023-09-19T04:25:20;14.25;85.24
78490;DHT22;67776;52.012;4.736;2023-09-19T04:27:46;14.31;85.16
78490;DHT22;67776;52.012;4.736;2023-09-19T04:30:14;14.22;85.59
78490;DHT22;67776;52.012;4.736;2023-09-19T04:32:40;14.24;86.31
78490;DHT22;67776;52.012;4.736;2023-09-19T04:35:07;14.28;85.06
78490;DHT22;67776;52.012;4.736;2023-09-19T04:37:35;14.29;85.19
78490;DHT22;67776;52.012;4.736;2023-09-19T04:40:00;14.31;85.55
78490;DHT22;67776;52.012;4.736;2023-09-19T04:42:26;14.20;86.50
78490;DHT22;67776;52.012;4.736;2023-09-19T04:44:52;14.10;86.51
78490;DHT22;67776;52.012;4.736;2023-09-19T04:47:18;14.07;85.86
78490;DHT22;67776;52.012;4.736;2023-09-19T04:49:43;14.11;87.55
78490;DHT22;67776;52.012;4.736;2023-09-19T04:52:09;14.00;87.66
78490;DHT22;67776;52.012;4.736;2023-09-19T04:54:34;14.00;87.61
78490;DHT22;67776;52.012;4.736;2023-09-19T04:56:59;14.00;86.86
78490;DHT22;67776;52.012;4.736;2023-09-19T04:59:25;14.05;86.76
78490;DHT22;67776;52.012;4.736;2023-09-19T05:01:51;14.15;86.34
78490;DHT22;67776;52.012;4.736;2023-09-19T05:04:16;14.20;87.35
78490;DHT22;67776;52.012;4.736;2023-09-19T05:06:41;14.20;86.75
78490;DHT22;67776;52.012;4.736;2023-09-19T05:09:07;14.20;87.22
78490;DHT22;67776;52.012;4.736;2023-09-19T05:11:33;14.18;87.90
78490;DHT22;67776;52.012;4.736;2023-09-19T05:13:59;14.20;86.35
78490;DHT22;67776;52.012;4.736;2023-09-19T05:16:29;14.22;85.72
78490;DHT22;67776;52.012;4.736;2023-09-19T05:18:56;14.20;87.31
78490;DHT22;67776;52.012;4.736;2023-09-19T05:21:22;14.14;87.74
78490;DHT22;67776;52.012;4.736;2023-09-19T05:23:48;14.10;88.22
78490;DHT22;67776;52.012;4.736;2023-09-19T05:26:15;14.15;86.34
78490;DHT22;67776;52.012;4.736;2023-09-19T05:28:41;14.20;86.92
78490;DHT22;67776;52.012;4.736;2023-09-19T05:31:08;14.24;86.54
78490;DHT22;67776;52.012;4.736;2023-09-19T05:33:33;14.21;87.03
78490;DHT22;67776;52.012;4.736;2023-09-19T05:35:59;14.18;86.21
78490;DHT22;67776;52.012;4.736;2023-09-19T05:38:24;14.18;87.21
78490;DHT22;67776;52.012;4.736;2023-09-19T05:40:51;14.22;86.37
78490;DHT22;67776;52.012;4.736;2023-09-19T05:43:16;14.18;87.10
78490;DHT22;67776;52.012;4.736;2023-09-19T05:45:42;14.17;87.93
78490;DHT22;67776;52.012;4.736;2023-09-19T05:48:16;14.15;86.84
78490;DHT22;67776;52.012;4.736;2023-09-19T05:50:42;14.21;87.14
78490;DHT22;67776;52.012;4.736;2023-09-19T05:53:08;14.21;86.71
78490;DHT22;67776;52.012;4.736;2023-09-19T05:55:39;14.22;87.56
78490;DHT22;67776;52.012;4.736;2023-09-19T05:58:05;14.25;87.49
78490;DHT22;67776;52.012;4.736;2023-09-19T06:00:30;14.25;87.79
78490;DHT22;67776;52.012;4.736;2023-09-19T06:02:58;14.25;87.22
78490;DHT22;67776;52.012;4.736;2023-09-19T06:05:25;14.28;87.25
78490;DHT22;67776;52.012;4.736;2023-09-19T06:07:52;14.31;88.51
78490;DHT22;67776;52.012;4.736;2023-09-19T06:10:18;14.32;87.31
78490;DHT22;67776;52.012;4.736;2023-09-19T06:12:46;14.35;87.65
78490;DHT22;67776;52.012;4.736;2023-09-19T06:15:15;14.38;87.44
78490;DHT22;67776;52.012;4.736;2023-09-19T06:17:42;14.42;87.67
78490;DHT22;67776;52.012;4.736;2023-09-19T06:20:08;14.48;87.20
78490;DHT22;67776;52.012;4.736;2023-09-19T06:22:43;14.56;86.94
78490;DHT22;67776;52.012;4.736;2023-09-19T06:25:13;14.58;87.31
78490;DHT22;67776;52.012;4.736;2023-09-19T06:27:46;14.60;87.69
78490;DHT22;67776;52.012;4.736;2023-09-19T06:30:12;14.59;88.27
78490;DHT22;67776;52.012;4.736;2023-09-19T06:32:38;14.68;87.33
78490;DHT22;67776;52.012;4.736;2023-09-19T06:35:05;14.68;87.16
78490;DHT22;67776;52.012;4.736;2023-09-19T06:37:34;14.73;86.56
78490;DHT22;67776;52.012;4.736;2023-09-19T06:40:05;14.76;87.02
78490;DHT22;67776;52.012;4.736;2023-09-19T06:42:31;14.81;86.54
78490;DHT22;67776;52.012;4.736;2023-09-19T06:44:56;14.84;86.37
78490;DHT22;67776;52.012;4.736;2023-09-19T06:47:21;14.83;87.11
78490;DHT22;67776;52.012;4.736;2023-09-19T06:49:47;14.88;86.29
78490;DHT22;67776;52.012;4.736;2023-09-19T06:52:13;14.84;87.77
78490;DHT22;67776;52.012;4.736;2023-09-19T06:54:38;14.88;87.96
78490;DHT22;67776;52.012;4.736;2023-09-19T06:57:05;14.91;87.44
78490;DHT22;67776;52.012;4.736;2023-09-19T06:59:34;15.00;85.76
78490;DHT22;67776;52.012;4.736;2023-09-19T07:02:01;15.04;86.29
78490;DHT22;67776;52.012;4.736;2023-09-19T07:04:26;15.04;86.32
78490;DHT22;67776;52.012;4.736;2023-09-19T07:06:52;15.05;86.19
78490;DHT22;67776;52.012;4.736;2023-09-19T07:09:17;15.05;86.58
78490;DHT22;67776;52.012;4.736;2023-09-19T07:11:44;15.07;87.05
78490;DHT22;67776;52.012;4.736;2023-09-19T07:14:10;15.12;86.71
78490;DHT22;67776;52.012;4.736;2023-09-19T07:16:37;15.15;85.73
78490;DHT22;67776;52.012;4.736;2023-09-19T07:19:04;15.10;88.05
78490;DHT22;67776;52.012;4.736;2023-09-19T07:21:29;15.18;86.57
78490;DHT22;67776;52.012;4.736;2023-09-19T07:23:55;15.24;85.88
78490;DHT22;67776;52.012;4.736;2023-09-19T07:26:20;15.27;86.53
78490;DHT22;67776;52.012;4.736;2023-09-19T07:28:45;15.32;86.00
78490;DHT22;67776;52.012;4.736;2023-09-19T07:31:11;15.36;86.33
78490;DHT22;67776;52.012;4.736;2023-09-19T07:33:38;15.43;85.77
78490;DHT22;67776;52.012;4.736;2023-09-19T07:36:03;15.46;85.77
78490;DHT22;67776;52.012;4.736;2023-09-19T07:38:28;15.58;85.07
78490;DHT22;67776;52.012;4.736;2023-09-19T07:41:00;15.59;85.15
78490;DHT22;67776;52.012;4.736;2023-09-19T07:43:25;15.56;85.92
78490;DHT22;67776;52.012;4.736;2023-09-19T07:45:52;15.66;86.65
78490;DHT22;67776;52.012;4.736;2023-09-19T07:48:17;15.66;86.21
78490;DHT22;67776;52.012;4.736;2023-09-19T07:50:42;15.73;85.80
78490;DHT22;67776;52.012;4.736;2023-09-19T07:53:09;15.82;85.89
78490;DHT22;67776;52.012;4.736;2023-09-19T07:55:34;15.83;86.37
78490;DHT22;67776;52.012;4.736;2023-09-19T07:58:00;15.86;85.60
78490;DHT22;67776;52.012;4.736;2023-09-19T08:00:25;15.94;86.14
78490;DHT22;67776;52.012;4.736;2023-09-19T08:02:51;15.97;86.69
78490;DHT22;67776;52.012;4.736;2023-09-19T08:05:17;16.01;85.02
78490;DHT22;67776;52.012;4.736;2023-09-19T08:07:45;16.08;84.60
78490;DHT22;67776;52.012;4.736;2023-09-19T08:10:14;16.13;84.77
78490;DHT22;67776;52.012;4.736;2023-09-19T08:12:43;16.25;85.89
78490;DHT22;67776;52.012;4.736;2023-09-19T08:15:19;16.24;86.32
78490;DHT22;67776;52.012;4.736;2023-09-19T08:17:45;16.34;84.95
78490;DHT22;67776;52.012;4.736;2023-09-19T08:20:12;16.52;83.97
78490;DHT22;67776;52.012;4.736;2023-09-19T08:22:48;16.60;83.91
78490;DHT22;67776;52.012;4.736;2023-09-19T08:25:15;16.65;83.40
78490;DHT22;67776;52.012;4.736;2023-09-19T08:27:47;16.69;83.75
78490;DHT22;67776;52.012;4.736;2023-09-19T08:30:19;16.75;84.23
78490;DHT22;67776;52.012;4.736;2023-09-19T08:32:45;16.66;83.10
78490;DHT22;67776;52.012;4.736;2023-09-19T08:35:11;16.69;83.67
78490;DHT22;67776;52.012;4.736;2023-09-19T08:37:37;16.80;83.43
78490;DHT22;67776;52.012;4.736;2023-09-19T08:40:02;16.83;82.89
78490;DHT22;67776;52.012;4.736;2023-09-19T08:42:28;16.63;83.12
78490;DHT22;67776;52.012;4.736;2023-09-19T08:44:55;16.66;82.87
78490;DHT22;67776;52.012;4.736;2023-09-19T08:47:33;16.69;81.46
78490;DHT22;67776;52.012;4.736;2023-09-19T08:50:04;16.79;82.64
78490;DHT22;67776;52.012;4.736;2023-09-19T08:52:41;16.79;81.60
78490;DHT22;67776;52.012;4.736;2023-09-19T08:55:07;16.73;81.37
78490;DHT22;67776;52.012;4.736;2023-09-19T08:57:37;16.63;83.53
78490;DHT22;67776;52.012;4.736;2023-09-19T09:00:07;16.70;82.76
78490;DHT22;67776;52.012;4.736;2023-09-19T09:02:38;16.70;84.97
78490;DHT22;67776;52.012;4.736;2023-09-19T09:05:08;16.70;83.56
78490;DHT22;67776;52.012;4.736;2023-09-19T09:07:37;16.66;83.40
78490;DHT22;67776;52.012;4.736;2023-09-19T09:10:04;16.73;83.64
78490;DHT22;67776;52.012;4.736;2023-09-19T09:12:30;16.72;82.84
78490;DHT22;67776;52.012;4.736;2023-09-19T09:14:55;16.72;82.81
78490;DHT22;67776;52.012;4.736;2023-09-19T09:17:22;16.76;83.82
78490;DHT22;67776;52.012;4.736;2023-09-19T09:19:48;16.86;83.25
78490;DHT22;67776;52.012;4.736;2023-09-19T09:22:13;17.10;82.60
78490;DHT22;67776;52.012;4.736;2023-09-19T09:24:55;17.04;81.28
78490;DHT22;67776;52.012;4.736;2023-09-19T09:27:23;17.42;80.52
78490;DHT22;67776;52.012;4.736;2023-09-19T09:29:50;18.08;78.44
78490;DHT22;67776;52.012;4.736;2023-09-19T09:32:36;17.59;79.74
78490;DHT22;67776;52.012;4.736;2023-09-19T09:35:07;17.36;80.06
78490;DHT22;67776;52.012;4.736;2023-09-19T09:37:35;17.34;81.29
78490;DHT22;67776;52.012;4.736;2023-09-19T09:40:04;17.21;80.93
78490;DHT22;67776;52.012;4.736;2023-09-19T09:42:41;17.11;80.75
78490;DHT22;67776;52.012;4.736;2023-09-19T09:45:23;17.27;81.98
78490;DHT22;67776;52.012;4.736;2023-09-19T09:47:58;17.66;80.53
78490;DHT22;67776;52.012;4.736;2023-09-19T09:50:31;17.63;80.14
78490;DHT22;67776;52.012;4.736;2023-09-19T09:53:28;17.87;79.38
78490;DHT22;67776;52.012;4.736;2023-09-19T09:56:08;18.25;78.62
78490;DHT22;67776;52.012;4.736;2023-09-19T09:58:49;18.25;77.99
78490;DHT22;67776;52.012;4.736;2023-09-19T10:01:15;18.20;78.50
78490;DHT22;67776;52.012;4.736;2023-09-19T10:03:42;18.51;79.78
78490;DHT22;67776;52.012;4.736;2023-09-19T10:06:16;18.73;78.27
78490;DHT22;67776;52.012;4.736;2023-09-19T10:09:08;18.63;78.57
78490;DHT22;67776;52.012;4.736;2023-09-19T10:11:44;19.06;77.31
78490;DHT22;67776;52.012;4.736;2023-09-19T10:14:16;18.65;78.31
78490;DHT22;67776;52.012;4.736;2023-09-19T10:16:48;18.63;77.71
78490;DHT22;67776;52.012;4.736;2023-09-19T10:19:29;19.08;75.99
78490;DHT22;67776;52.012;4.736;2023-09-19T10:21:55;19.13;77.78
78490;DHT22;67776;52.012;4.736;2023-09-19T10:24:22;19.38;78.18
78490;DHT22;67776;52.012;4.736;2023-09-19T10:26:50;19.03;76.31
78490;DHT22;67776;52.012;4.736;2023-09-19T10:29:17;19.38;75.84
78490;DHT22;67776;52.012;4.736;2023-09-19T10:31:44;19.35;74.70
78490;DHT22;67776;52.012;4.736;2023-09-19T10:34:14;19.28;75.30
78490;DHT22;67776;52.012;4.736;2023-09-19T10:36:45;19.03;75.59
78490;DHT22;67776;52.012;4.736;2023-09-19T10:39:15;19.10;77.67
78490;DHT22;67776;52.012;4.736;2023-09-19T10:41:49;19.82;74.39
78490;DHT22;67776;52.012;4.736;2023-09-19T10:44:21;19.86;73.42
78490;DHT22;67776;52.012;4.736;2023-09-19T10:46:47;20.61;72.32
78490;DHT22;67776;52.012;4.736;2023-09-19T10:49:13;20.59;72.48
78490;DHT22;67776;52.012;4.736;2023-09-19T10:51:43;19.83;74.45
78490;DHT22;67776;52.012;4.736;2023-09-19T10:54:15;19.04;74.60
78490;DHT22;67776;52.012;4.736;2023-09-19T10:56:44;19.06;75.66
78490;DHT22;67776;52.012;4.736;2023-09-19T10:59:13;18.79;76.60
78490;DHT22;67776;52.012;4.736;2023-09-19T11:04:33;20.12;72.39
78490;DHT22;67776;52.012;4.736;2023-09-19T11:09:48;19.86;72.77
78490;DHT22;67776;52.012;4.736;2023-09-19T11:14:51;19.70;74.03
78490;DHT22;67776;52.012;4.736;2023-09-19T11:33:22;19.78;73.20
78490;DHT22;67776;52.012;4.736;2023-09-19T11:46:13;18.48;77.73
78490;DHT22;67776;52.012;4.736;2023-09-19T11:48:43;18.52;76.79
78490;DHT22;67776;52.012;4.736;2023-09-19T11:51:14;18.47;75.67
78490;DHT22;67776;52.012;4.736;2023-09-19T11:53:45;18.40;77.33
78490;DHT22;67776;52.012;4.736;2023-09-19T11:56:23;18.40;77.89
78490;DHT22;67776;52.012;4.736;2023-09-19T11:58:54;18.35;77.60
78490;DHT22;67776;52.012;4.736;2023-09-19T12:01:30;18.40;76.96
78490;DHT22;67776;52.012;4.736;2023-09-19T12:03:58;18.41;77.16
78490;DHT22;67776;52.012;4.736;2023-09-19T12:06:25;18.55;76.60
78490;DHT22;67776;52.012;4.736;2023-09-19T12:08:51;18.65;77.00
78490;DHT22;67776;52.012;4.736;2023-09-19T12:11:21;18.37;77.49
78490;DHT22;67776;52.012;4.736;2023-09-19T12:13:47;18.48;76.87
78490;DHT22;67776;52.012;4.736;2023-09-19T12:16:20;18.66;76.12
78490;DHT22;67776;52.012;4.736;2023-09-19T12:18:50;18.97;77.23
78490;DHT22;67776;52.012;4.736;2023-09-19T12:21:28;19.18;74.94
78490;DHT22;67776;52.012;4.736;2023-09-19T12:26:30;19.35;75.86
78490;DHT22;67776;52.012;4.736;2023-09-19T12:28:59;19.44;77.23
78490;DHT22;67776;52.012;4.736;2023-09-19T12:31:26;19.47;75.30
78490;DHT22;67776;52.012;4.736;2023-09-19T12:33:55;19.32;75.28
78490;DHT22;67776;52.012;4.736;2023-09-19T12:36:23;19.13;76.75
78490;DHT22;67776;52.012;4.736;2023-09-19T12:38:58;19.13;76.16
78490;DHT22;67776;52.012;4.736;2023-09-19T12:41:24;19.39;74.81
78490;DHT22;67776;52.012;4.736;2023-09-19T12:43:54;19.35;78.13
78490;DHT22;67776;52.012;4.736;2023-09-19T12:46:21;19.62;76.61
78490;DHT22;67776;52.012;4.736;2023-09-19T12:49:16;19.63;75.52
78490;DHT22;67776;52.012;4.736;2023-09-19T12:51:47;19.44;77.41
78490;DHT22;67776;52.012;4.736;2023-09-19T12:54:13;19.48;75.77
78490;DHT22;67776;52.012;4.736;2023-09-19T12:56:45;19.28;77.60
78490;DHT22;67776;52.012;4.736;2023-09-19T12:59:14;19.51;76.45
78490;DHT22;67776;52.012;4.736;2023-09-19T13:01:41;19.76;75.16
78490;DHT22;67776;52.012;4.736;2023-09-19T13:04:16;19.63;77.98
78490;DHT22;67776;52.012;4.736;2023-09-19T13:06:48;19.48;77.10
78490;DHT22;67776;52.012;4.736;2023-09-19T13:09:15;19.41;77.22
78490;DHT22;67776;52.012;4.736;2023-09-19T13:11:41;19.31;76.54
78490;DHT22;67776;52.012;4.736;2023-09-19T13:14:14;19.31;77.24
78490;DHT22;67776;52.012;4.736;2023-09-19T13:19:39;19.06;78.49
78490;DHT22;67776;52.012;4.736;2023-09-19T13:22:35;19.02;77.27
78490;DHT22;67776;52.012;4.736;2023-09-19T13:24:51;18.92;77.43
78490;DHT22;67776;52.012;4.736;2023-09-19T13:27:16;19.06;76.48
78490;DHT22;67776;52.012;4.736;2023-09-19T13:29:42;18.97;76.99
78490;DHT22;67776;52.012;4.736;2023-09-19T13:32:07;19.11;77.13
78490;DHT22;67776;52.012;4.736;2023-09-19T13:34:36;19.08;77.20
78490;DHT22;67776;52.012;4.736;2023-09-19T13:37:03;19.13;76.61
78490;DHT22;67776;52.012;4.736;2023-09-19T13:39:29;19.17;75.64
78490;DHT22;67776;52.012;4.736;2023-09-19T13:41:55;19.14;75.62
78490;DHT22;67776;52.012;4.736;2023-09-19T13:44:20;18.99;77.36
78490;DHT22;67776;52.012;4.736;2023-09-19T13:46:46;18.99;76.40
78490;DHT22;67776;52.012;4.736;2023-09-19T13:49:11;18.93;77.06
78490;DHT22;67776;52.012;4.736;2023-09-19T13:51:37;18.96;78.54
78490;DHT22;67776;52.012;4.736;2023-09-19T13:54:02;18.79;77.29
78490;DHT22;67776;52.012;4.736;2023-09-19T13:56:28;18.62;79.14
78490;DHT22;67776;52.012;4.736;2023-09-19T13:58:54;18.51;78.23
78490;DHT22;67776;52.012;4.736;2023-09-19T14:01:20;18.49;78.61
78490;DHT22;67776;52.012;4.736;2023-09-19T14:03:45;18.58;78.03
78490;DHT22;67776;52.012;4.736;2023-09-19T14:06:14;18.52;78.51
78490;DHT22;67776;52.012;4.736;2023-09-19T14:08:40;18.53;77.80
78490;DHT22;67776;52.012;4.736;2023-09-19T14:11:06;18.51;77.96
78490;DHT22;67776;52.012;4.736;2023-09-19T14:13:32;18.61;77.13
78490;DHT22;67776;52.012;4.736;2023-09-19T14:15:57;18.63;77.04
78490;DHT22;67776;52.012;4.736;2023-09-19T14:18:22;18.63;77.93
78490;DHT22;67776;52.012;4.736;2023-09-19T14:20:48;18.41;79.27
78490;DHT22;67776;52.012;4.736;2023-09-19T14:23:13;18.34;79.34
78490;DHT22;67776;52.012;4.736;2023-09-19T14:25:38;18.35;80.05
78490;DHT22;67776;52.012;4.736;2023-09-19T14:28:05;18.30;80.12
78490;DHT22;67776;52.012;4.736;2023-09-19T14:30:32;18.17;80.80
78490;DHT22;67776;52.012;4.736;2023-09-19T14:32:58;18.13;81.44
78490;DHT22;67776;52.012;4.736;2023-09-19T14:35:23;18.28;79.74
78490;DHT22;67776;52.012;4.736;2023-09-19T14:37:49;18.31;80.11
78490;DHT22;67776;52.012;4.736;2023-09-19T14:40:14;18.40;79.40
78490;DHT22;67776;52.012;4.736;2023-09-19T14:42:43;18.49;78.32
78490;DHT22;67776;52.012;4.736;2023-09-19T14:45:10;18.62;77.95
78490;DHT22;67776;52.012;4.736;2023-09-19T14:47:37;18.59;77.72
78490;DHT22;67776;52.012;4.736;2023-09-19T14:50:03;18.53;77.25
78490;DHT22;67776;52.012;4.736;2023-09-19T14:52:32;18.49;78.83
78490;DHT22;67776;52.012;4.736;2023-09-19T14:54:58;18.49;78.42
78490;DHT22;67776;52.012;4.736;2023-09-19T14:57:24;18.49;78.13
78490;DHT22;67776;52.012;4.736;2023-09-19T14:59:50;18.45;78.94
78490;DHT22;67776;52.012;4.736;2023-09-19T15:02:15;18.42;79.17
78490;DHT22;67776;52.012;4.736;2023-09-19T15:04:42;18.38;78.26
78490;DHT22;67776;52.012;4.736;2023-09-19T15:07:11;18.30;78.82
78490;DHT22;67776;52.012;4.736;2023-09-19T15:09:37;18.45;78.22
78490;DHT22;67776;52.012;4.736;2023-09-19T15:12:03;18.44;78.02
78490;DHT22;67776;52.012;4.736;2023-09-19T15:14:28;18.35;78.95
78490;DHT22;67776;52.012;4.736;2023-09-19T15:16:55;18.44;77.96
78490;DHT22;67776;52.012;4.736;2023-09-19T15:19:20;18.51;76.89
78490;DHT22;67776;52.012;4.736;2023-09-19T15:21:47;18.44;77.83
78490;DHT22;67776;52.012;4.736;2023-09-19T15:24:12;18.40;78.26
78490;DHT22;67776;52.012;4.736;2023-09-19T15:26:38;18.47;78.06
78490;DHT22;67776;52.012;4.736;2023-09-19T15:29:07;18.47;78.38
78490;DHT22;67776;52.012;4.736;2023-09-19T15:31:33;18.49;78.15
78490;DHT22;67776;52.012;4.736;2023-09-19T15:33:58;18.51;78.01
78490;DHT22;67776;52.012;4.736;2023-09-19T15:36:24;18.51;78.89
78490;DHT22;67776;52.012;4.736;2023-09-19T15:39:03;18.65;76.97
78490;DHT22;67776;52.012;4.736;2023-09-19T15:41:33;18.65;77.46
78490;DHT22;67776;52.012;4.736;2023-09-19T15:44:00;18.65;77.41
78490;DHT22;67776;52.012;4.736;2023-09-19T15:46:27;18.55;77.70
78490;DHT22;67776;52.012;4.736;2023-09-19T15:48:53;18.58;77.64
78490;DHT22;67776;52.012;4.736;2023-09-19T15:51:18;18.66;77.92
78490;DHT22;67776;52.012;4.736;2023-09-19T15:53:49;18.52;77.74
78490;DHT22;67776;52.012;4.736;2023-09-19T15:56:15;18.44;77.95
78490;DHT22;67776;52.012;4.736;2023-09-19T15:58:44;18.34;78.61
78490;DHT22;67776;52.012;4.736;2023-09-19T16:01:10;18.10;80.60
78490;DHT22;67776;52.012;4.736;2023-09-19T16:03:41;17.82;82.81
78490;DHT22;67776;52.012;4.736;2023-09-19T16:06:20;17.55;84.42
78490;DHT22;67776;52.012;4.736;2023-09-19T16:08:49;17.42;84.91
78490;DHT22;67776;52.012;4.736;2023-09-19T16:11:15;17.30;86.68
78490;DHT22;67776;52.012;4.736;2023-09-19T16:13:41;17.34;86.27
78490;DHT22;67776;52.012;4.736;2023-09-19T16:16:08;17.32;85.70
78490;DHT22;67776;52.012;4.736;2023-09-19T16:18:33;17.34;86.49
78490;DHT22;67776;52.012;4.736;2023-09-19T16:21:06;17.36;85.87
78490;DHT22;67776;52.012;4.736;2023-09-19T16:23:35;17.45;85.25
78490;DHT22;67776;52.012;4.736;2023-09-19T16:26:08;17.53;84.15
78490;DHT22;67776;52.012;4.736;2023-09-19T16:28:35;17.56;84.70
78490;DHT22;67776;52.012;4.736;2023-09-19T16:31:02;17.62;85.23